sensor_id;sensor_type;location;lat;lon;timestamp;P1;durP1;ratioP1;P2;durP2;ratioP2
6840;SDS011;3458;53.678;14.080;2022-11-20T00:00:49;6.33;;;4.87;;
6840;SDS011;3458;53.678;14.080;2022-11-20T00:03:14;7.33;;;4.80;;
6840;SDS011;3458;53.678;14.080;2022-11-20T00:05:40;7.73;;;4.60;;
6840;SDS011;3458;53.678;14.080;2022-11-20T00:08:06;9.50;;;5.80;;
6840;SDS011;3458;53.678;14.080;2022-11-20T00:10:31;6.87;;;4.67;;
6840;SDS011;3458;53.678;14.080;2022-11-20T00:13:00;6.07;;;4.30;;
6840;SDS011;3458;53.678;14.080;2022-11-20T00:15:25;6.37;;;4.57;;
6840;SDS011;3458;53.678;14.080;2022-11-20T00:17:51;7.13;;;4.17;;
6840;SDS011;3458;53.678;14.080;2022-11-20T00:20:16;5.90;;;4.20;;
6840;SDS011;3458;53.678;14.080;2022-11-20T00:22:42;7.87;;;5.10;;
6840;SDS011;3458;53.678;14.080;2022-11-20T00:25:07;9.87;;;4.50;;
6840;SDS011;3458;53.678;14.080;2022-11-20T00:27:33;4.90;;;4.03;;
6840;SDS011;3458;53.678;14.080;2022-11-20T00:29:58;6.97;;;4.60;;
6840;SDS011;3458;53.678;14.080;2022-11-20T00:32:24;8.07;;;4.60;;
6840;SDS011;3458;53.678;14.080;2022-11-20T00:34:49;7.97;;;5.03;;
6840;SDS011;3458;53.678;14.080;2022-11-20T00:37:15;6.67;;;4.07;;
6840;SDS011;3458;53.678;14.080;2022-11-20T00:39:40;7.00;;;4.60;;
6840;SDS011;3458;53.678;14.080;2022-11-20T00:42:06;5.23;;;4.20;;
6840;SDS011;3458;53.678;14.080;2022-11-20T00:44:31;7.80;;;4.17;;
6840;SDS011;3458;53.678;14.080;2022-11-20T00:46:57;7.87;;;4.93;;
6840;SDS011;3458;53.678;14.080;2022-11-20T00:49:22;4.83;;;4.30;;
6840;SDS011;3458;53.678;14.080;2022-11-20T00:51:48;9.00;;;5.37;;
6840;SDS011;3458;53.678;14.080;2022-11-20T00:54:13;5.83;;;3.80;;
6840;SDS011;3458;53.678;14.080;2022-11-20T00:56:39;5.37;;;4.37;;
6840;SDS011;3458;53.678;14.080;2022-11-20T00:59:05;5.33;;;3.77;;
6840;SDS011;3458;53.678;14.080;2022-11-20T01:01:30;6.23;;;4.03;;
6840;SDS011;3458;53.678;14.080;2022-11-20T01:03:57;7.13;;;5.40;;
6840;SDS011;3458;53.678;14.080;2022-11-20T01:06:25;7.30;;;4.37;;
6840;SDS011;3458;53.678;14.080;2022-11-20T01:08:54;4.50;;;4.00;;
6840;SDS011;3458;53.678;14.080;2022-11-20T01:11:22;6.20;;;4.17;;
6840;SDS011;3458;53.678;14.080;2022-11-20T01:13:53;7.10;;;4.80;;
6840;SDS011;3458;53.678;14.080;2022-11-20T01:16:20;4.97;;;4.10;;
6840;SDS011;3458;53.678;14.080;2022-11-20T01:18:49;4.80;;;3.93;;
6840;SDS011;3458;53.678;14.080;2022-11-20T01:21:20;11.43;;;4.57;;
6840;SDS011;3458;53.678;14.080;2022-11-20T01:23:53;5.43;;;4.60;;
6840;SDS011;3458;53.678;14.080;2022-11-20T01:26:20;6.57;;;4.53;;
6840;SDS011;3458;53.678;14.080;2022-11-20T01:28:47;8.17;;;4.47;;
6840;SDS011;3458;53.678;14.080;2022-11-20T01:31:35;6.17;;;4.23;;
6840;SDS011;3458;53.678;14.080;2022-11-20T01:34:02;6.20;;;4.10;;
6840;SDS011;3458;53.678;14.080;2022-11-20T01:36:30;5.80;;;4.37;;
6840;SDS011;3458;53.678;14.080;2022-11-20T01:38:58;4.83;;;3.57;;
6840;SDS011;3458;53.678;14.080;2022-11-20T01:41:25;5.50;;;4.10;;
6840;SDS011;3458;53.678;14.080;2022-11-20T01:44:11;5.50;;;4.10;;
6840;SDS011;3458;53.678;14.080;2022-11-20T01:46:40;8.80;;;3.77;;
6840;SDS011;3458;53.678;14.080;2022-11-20T01:49:19;5.87;;;3.80;;
6840;SDS011;3458;53.678;14.080;2022-11-20T01:51:53;3.97;;;3.47;;
6840;SDS011;3458;53.678;14.080;2022-11-20T01:54:25;7.17;;;3.87;;
6840;SDS011;3458;53.678;14.080;2022-11-20T01:56:58;4.60;;;3.33;;
6840;SDS011;3458;53.678;14.080;2022-11-20T01:59:25;5.30;;;3.90;;
6840;SDS011;3458;53.678;14.080;2022-11-20T02:01:53;7.03;;;3.90;;
6840;SDS011;3458;53.678;14.080;2022-11-20T02:04:19;4.40;;;3.60;;
6840;SDS011;3458;53.678;14.080;2022-11-20T02:06:46;6.10;;;4.23;;
6840;SDS011;3458;53.678;14.080;2022-11-20T02:09:16;3.57;;;3.00;;
6840;SDS011;3458;53.678;14.080;2022-11-20T02:11:41;6.47;;;3.97;;
6840;SDS011;3458;53.678;14.080;2022-11-20T02:14:07;4.07;;;3.20;;
6840;SDS011;3458;53.678;14.080;2022-11-20T02:16:34;3.80;;;3.47;;
6840;SDS011;3458;53.678;14.080;2022-11-20T02:19:04;7.73;;;3.80;;
6840;SDS011;3458;53.678;14.080;2022-11-20T02:21:36;4.77;;;3.10;;
6840;SDS011;3458;53.678;14.080;2022-11-20T02:24:15;4.27;;;3.57;;
6840;SDS011;3458;53.678;14.080;2022-11-20T02:26:44;4.73;;;3.20;;
6840;SDS011;3458;53.678;14.080;2022-11-20T02:29:19;4.77;;;3.40;;
6840;SDS011;3458;53.678;14.080;2022-11-20T02:31:50;3.47;;;3.10;;
6840;SDS011;3458;53.678;14.080;2022-11-20T02:34:18;4.20;;;3.37;;
6840;SDS011;3458;53.678;14.080;2022-11-20T02:36:44;3.47;;;3.10;;
6840;SDS011;3458;53.678;14.080;2022-11-20T02:39:11;3.87;;;3.43;;
6840;SDS011;3458;53.678;14.080;2022-11-20T02:41:38;3.90;;;2.63;;
6840;SDS011;3458;53.678;14.080;2022-11-20T02:44:04;10.17;;;3.87;;
6840;SDS011;3458;53.678;14.080;2022-11-20T02:46:30;3.70;;;3.27;;
6840;SDS011;3458;53.678;14.080;2022-11-20T02:48:57;3.90;;;3.50;;
6840;SDS011;3458;53.678;14.080;2022-11-20T02:51:23;4.10;;;3.27;;
6840;SDS011;3458;53.678;14.080;2022-11-20T02:53:49;4.33;;;3.70;;
6840;SDS011;3458;53.678;14.080;2022-11-20T02:56:14;4.30;;;3.50;;
6840;SDS011;3458;53.678;14.080;2022-11-20T02:58:40;6.77;;;4.23;;
6840;SDS011;3458;53.678;14.080;2022-11-20T03:01:06;5.83;;;3.30;;
6840;SDS011;3458;53.678;14.080;2022-11-20T03:03:31;8.47;;;4.10;;
6840;SDS011;3458;53.678;14.080;2022-11-20T03:05:58;4.40;;;3.77;;
6840;SDS011;3458;53.678;14.080;2022-11-20T03:08:24;5.70;;;4.37;;
6840;SDS011;3458;53.678;14.080;2022-11-20T03:10:50;6.93;;;3.67;;
6840;SDS011;3458;53.678;14.080;2022-11-20T03:13:15;4.43;;;3.43;;
6840;SDS011;3458;53.678;14.080;2022-11-20T03:15:41;7.30;;;4.10;;
6840;SDS011;3458;53.678;14.080;2022-11-20T03:18:06;5.67;;;4.00;;
6840;SDS011;3458;53.678;14.080;2022-11-20T03:20:32;4.10;;;3.43;;
6840;SDS011;3458;53.678;14.080;2022-11-20T03:22:58;4.43;;;4.00;;
6840;SDS011;3458;53.678;14.080;2022-11-20T03:25:24;4.60;;;4.20;;
6840;SDS011;3458;53.678;14.080;2022-11-20T03:27:50;5.13;;;3.73;;
6840;SDS011;3458;53.678;14.080;2022-11-20T03:30:16;4.90;;;4.40;;
6840;SDS011;3458;53.678;14.080;2022-11-20T03:32:41;4.73;;;4.00;;
6840;SDS011;3458;53.678;14.080;2022-11-20T03:35:07;6.27;;;4.50;;
6840;SDS011;3458;53.678;14.080;2022-11-20T03:37:33;5.40;;;3.80;;
6840;SDS011;3458;53.678;14.080;2022-11-20T03:39:59;6.10;;;3.80;;
6840;SDS011;3458;53.678;14.080;2022-11-20T03:42:25;7.80;;;4.70;;
6840;SDS011;3458;53.678;14.080;2022-11-20T03:45:09;10.13;;;4.30;;
6840;SDS011;3458;53.678;14.080;2022-11-20T03:47:35;6.37;;;3.77;;
6840;SDS011;3458;53.678;14.080;2022-11-20T03:50:00;4.93;;;3.73;;
6840;SDS011;3458;53.678;14.080;2022-11-20T03:52:26;9.47;;;4.57;;
6840;SDS011;3458;53.678;14.080;2022-11-20T03:54:52;5.00;;;3.97;;
6840;SDS011;3458;53.678;14.080;2022-11-20T03:57:17;5.80;;;3.93;;
6840;SDS011;3458;53.678;14.080;2022-11-20T03:59:43;7.00;;;4.33;;
6840;SDS011;3458;53.678;14.080;2022-11-20T04:02:08;7.73;;;4.80;;
6840;SDS011;3458;53.678;14.080;2022-11-20T04:04:34;5.90;;;4.40;;
6840;SDS011;3458;53.678;14.080;2022-11-20T04:06:59;6.10;;;4.53;;
6840;SDS011;3458;53.678;14.080;2022-11-20T04:09:25;5.60;;;4.23;;
6840;SDS011;3458;53.678;14.080;2022-11-20T04:11:50;7.37;;;4.10;;
6840;SDS011;3458;53.678;14.080;2022-11-20T04:14:16;4.67;;;3.93;;
6840;SDS011;3458;53.678;14.080;2022-11-20T04:16:42;8.03;;;4.70;;
6840;SDS011;3458;53.678;14.080;2022-11-20T04:19:09;7.40;;;4.93;;
6840;SDS011;3458;53.678;14.080;2022-11-20T04:21:36;5.43;;;4.20;;
6840;SDS011;3458;53.678;14.080;2022-11-20T04:24:02;7.60;;;4.93;;
6840;SDS011;3458;53.678;14.080;2022-11-20T04:26:28;7.03;;;4.37;;
6840;SDS011;3458;53.678;14.080;2022-11-20T04:28:55;7.40;;;5.00;;
6840;SDS011;3458;53.678;14.080;2022-11-20T04:31:22;6.37;;;4.40;;
6840;SDS011;3458;53.678;14.080;2022-11-20T04:33:49;6.60;;;4.90;;
6840;SDS011;3458;53.678;14.080;2022-11-20T04:36:16;9.50;;;4.53;;
6840;SDS011;3458;53.678;14.080;2022-11-20T04:38:43;7.80;;;5.03;;
6840;SDS011;3458;53.678;14.080;2022-11-20T04:41:12;7.67;;;4.50;;
6840;SDS011;3458;53.678;14.080;2022-11-20T04:43:40;9.07;;;5.43;;
6840;SDS011;3458;53.678;14.080;2022-11-20T04:46:06;8.43;;;5.27;;
6840;SDS011;3458;53.678;14.080;2022-11-20T04:48:31;8.73;;;5.00;;
6840;SDS011;3458;53.678;14.080;2022-11-20T04:50:57;8.90;;;5.67;;
6840;SDS011;3458;53.678;14.080;2022-11-20T04:53:23;8.90;;;5.03;;
6840;SDS011;3458;53.678;14.080;2022-11-20T04:55:48;11.03;;;5.40;;
6840;SDS011;3458;53.678;14.080;2022-11-20T04:58:14;7.73;;;5.63;;
6840;SDS011;3458;53.678;14.080;2022-11-20T05:00:40;7.00;;;4.73;;
6840;SDS011;3458;53.678;14.080;2022-11-20T05:03:06;6.10;;;4.43;;
6840;SDS011;3458;53.678;14.080;2022-11-20T05:05:33;7.73;;;5.07;;
6840;SDS011;3458;53.678;14.080;2022-11-20T05:07:59;6.90;;;4.80;;
6840;SDS011;3458;53.678;14.080;2022-11-20T05:10:25;8.60;;;5.37;;
6840;SDS011;3458;53.678;14.080;2022-11-20T05:12:51;6.90;;;5.20;;
6840;SDS011;3458;53.678;14.080;2022-11-20T05:15:17;6.60;;;4.90;;
6840;SDS011;3458;53.678;14.080;2022-11-20T05:17:47;7.60;;;4.93;;
6840;SDS011;3458;53.678;14.080;2022-11-20T05:20:13;5.83;;;4.57;;
6840;SDS011;3458;53.678;14.080;2022-11-20T05:22:38;7.90;;;5.03;;
6840;SDS011;3458;53.678;14.080;2022-11-20T05:25:04;8.93;;;5.20;;
6840;SDS011;3458;53.678;14.080;2022-11-20T05:27:30;6.73;;;4.40;;
6840;SDS011;3458;53.678;14.080;2022-11-20T05:29:55;7.47;;;5.47;;
6840;SDS011;3458;53.678;14.080;2022-11-20T05:32:21;6.90;;;5.43;;
6840;SDS011;3458;53.678;14.080;2022-11-20T05:34:50;9.97;;;5.50;;
6840;SDS011;3458;53.678;14.080;2022-11-20T05:37:16;7.27;;;4.80;;
6840;SDS011;3458;53.678;14.080;2022-11-20T05:39:41;6.60;;;4.80;;
6840;SDS011;3458;53.678;14.080;2022-11-20T05:42:07;7.90;;;5.10;;
6840;SDS011;3458;53.678;14.080;2022-11-20T05:44:51;7.10;;;5.40;;
6840;SDS011;3458;53.678;14.080;2022-11-20T05:47:16;8.93;;;6.40;;
6840;SDS011;3458;53.678;14.080;2022-11-20T05:49:42;8.80;;;6.60;;
6840;SDS011;3458;53.678;14.080;2022-11-20T05:52:07;6.67;;;4.97;;
6840;SDS011;3458;53.678;14.080;2022-11-20T05:54:33;8.03;;;5.47;;
6840;SDS011;3458;53.678;14.080;2022-11-20T05:56:58;8.10;;;5.80;;
6840;SDS011;3458;53.678;14.080;2022-11-20T05:59:24;8.10;;;5.10;;
6840;SDS011;3458;53.678;14.080;2022-11-20T06:01:50;9.97;;;4.60;;
6840;SDS011;3458;53.678;14.080;2022-11-20T06:04:15;6.80;;;4.60;;
6840;SDS011;3458;53.678;14.080;2022-11-20T06:06:41;6.97;;;5.13;;
6840;SDS011;3458;53.678;14.080;2022-11-20T06:09:06;7.63;;;5.10;;
6840;SDS011;3458;53.678;14.080;2022-11-20T06:11:32;7.20;;;5.80;;
6840;SDS011;3458;53.678;14.080;2022-11-20T06:13:57;6.97;;;4.93;;
6840;SDS011;3458;53.678;14.080;2022-11-20T06:16:23;8.47;;;5.60;;
6840;SDS011;3458;53.678;14.080;2022-11-20T06:18:48;7.47;;;5.00;;
6840;SDS011;3458;53.678;14.080;2022-11-20T06:21:15;9.23;;;6.07;;
6840;SDS011;3458;53.678;14.080;2022-11-20T06:23:42;5.73;;;4.97;;
6840;SDS011;3458;53.678;14.080;2022-11-20T06:26:10;6.60;;;5.10;;
6840;SDS011;3458;53.678;14.080;2022-11-20T06:28:36;7.60;;;5.80;;
6840;SDS011;3458;53.678;14.080;2022-11-20T06:31:03;8.27;;;5.17;;
6840;SDS011;3458;53.678;14.080;2022-11-20T06:33:29;8.57;;;5.10;;
6840;SDS011;3458;53.678;14.080;2022-11-20T06:35:56;7.33;;;5.17;;
6840;SDS011;3458;53.678;14.080;2022-11-20T06:38:23;8.93;;;5.70;;
6840;SDS011;3458;53.678;14.080;2022-11-20T06:40:49;9.70;;;7.10;;
6840;SDS011;3458;53.678;14.080;2022-11-20T06:43:15;9.10;;;5.90;;
6840;SDS011;3458;53.678;14.080;2022-11-20T06:45:40;9.73;;;5.90;;
6840;SDS011;3458;53.678;14.080;2022-11-20T06:48:06;7.40;;;5.13;;
6840;SDS011;3458;53.678;14.080;2022-11-20T06:50:32;7.30;;;4.80;;
6840;SDS011;3458;53.678;14.080;2022-11-20T06:53:00;8.07;;;4.80;;
6840;SDS011;3458;53.678;14.080;2022-11-20T06:55:27;7.83;;;4.97;;
6840;SDS011;3458;53.678;14.080;2022-11-20T06:57:53;7.80;;;5.67;;
6840;SDS011;3458;53.678;14.080;2022-11-20T07:00:18;8.70;;;5.53;;
6840;SDS011;3458;53.678;14.080;2022-11-20T07:02:44;6.13;;;4.67;;
6840;SDS011;3458;53.678;14.080;2022-11-20T07:05:09;7.17;;;5.40;;
6840;SDS011;3458;53.678;14.080;2022-11-20T07:07:35;9.20;;;5.70;;
6840;SDS011;3458;53.678;14.080;2022-11-20T07:10:00;8.97;;;6.10;;
6840;SDS011;3458;53.678;14.080;2022-11-20T07:12:26;10.60;;;5.83;;
6840;SDS011;3458;53.678;14.080;2022-11-20T07:14:51;11.30;;;5.80;;
6840;SDS011;3458;53.678;14.080;2022-11-20T07:17:17;9.23;;;5.93;;
6840;SDS011;3458;53.678;14.080;2022-11-20T07:19:42;7.73;;;5.43;;
6840;SDS011;3458;53.678;14.080;2022-11-20T07:22:08;11.70;;;5.53;;
6840;SDS011;3458;53.678;14.080;2022-11-20T07:24:33;6.13;;;4.63;;
6840;SDS011;3458;53.678;14.080;2022-11-20T07:26:59;7.27;;;5.03;;
6840;SDS011;3458;53.678;14.080;2022-11-20T07:29:28;8.50;;;5.30;;
6840;SDS011;3458;53.678;14.080;2022-11-20T07:31:54;7.33;;;4.80;;
6840;SDS011;3458;53.678;14.080;2022-11-20T07:34:21;8.43;;;5.47;;
6840;SDS011;3458;53.678;14.080;2022-11-20T07:36:47;7.23;;;5.20;;
6840;SDS011;3458;53.678;14.080;2022-11-20T07:39:12;8.67;;;5.43;;
6840;SDS011;3458;53.678;14.080;2022-11-20T07:41:38;7.27;;;4.87;;
6840;SDS011;3458;53.678;14.080;2022-11-20T07:44:03;8.57;;;5.77;;
6840;SDS011;3458;53.678;14.080;2022-11-20T07:46:29;8.43;;;5.70;;
6840;SDS011;3458;53.678;14.080;2022-11-20T07:48:54;10.13;;;5.97;;
6840;SDS011;3458;53.678;14.080;2022-11-20T07:51:20;11.50;;;7.23;;
6840;SDS011;3458;53.678;14.080;2022-11-20T07:53:45;10.43;;;5.63;;
6840;SDS011;3458;53.678;14.080;2022-11-20T07:56:11;7.07;;;5.60;;
6840;SDS011;3458;53.678;14.080;2022-11-20T07:58:38;11.90;;;6.67;;
6840;SDS011;3458;53.678;14.080;2022-11-20T08:01:05;7.87;;;4.60;;
6840;SDS011;3458;53.678;14.080;2022-11-20T08:03:31;8.17;;;4.83;;
6840;SDS011;3458;53.678;14.080;2022-11-20T08:06:00;13.03;;;7.63;;
6840;SDS011;3458;53.678;14.080;2022-11-20T08:08:27;8.53;;;5.43;;
6840;SDS011;3458;53.678;14.080;2022-11-20T08:10:52;18.50;;;8.57;;
6840;SDS011;3458;53.678;14.080;2022-11-20T08:13:38;18.90;;;9.20;;
6840;SDS011;3458;53.678;14.080;2022-11-20T08:16:22;15.53;;;8.73;;
6840;SDS011;3458;53.678;14.080;2022-11-20T08:18:48;13.37;;;7.00;;
6840;SDS011;3458;53.678;14.080;2022-11-20T08:21:17;10.83;;;6.37;;
6840;SDS011;3458;53.678;14.080;2022-11-20T08:23:43;8.83;;;6.10;;
6840;SDS011;3458;53.678;14.080;2022-11-20T08:26:09;9.13;;;6.33;;
6840;SDS011;3458;53.678;14.080;2022-11-20T08:28:34;10.63;;;6.53;;
6840;SDS011;3458;53.678;14.080;2022-11-20T08:31:00;8.13;;;5.67;;
6840;SDS011;3458;53.678;14.080;2022-11-20T08:33:27;7.30;;;5.43;;
6840;SDS011;3458;53.678;14.080;2022-11-20T08:35:53;8.43;;;5.80;;
6840;SDS011;3458;53.678;14.080;2022-11-20T08:38:22;8.80;;;5.70;;
6840;SDS011;3458;53.678;14.080;2022-11-20T08:40:51;6.63;;;4.50;;
6840;SDS011;3458;53.678;14.080;2022-11-20T08:43:44;6.13;;;4.77;;
6840;SDS011;3458;53.678;14.080;2022-11-20T08:46:10;6.43;;;4.57;;
6840;SDS011;3458;53.678;14.080;2022-11-20T08:48:36;6.23;;;4.97;;
6840;SDS011;3458;53.678;14.080;2022-11-20T08:51:01;6.70;;;4.70;;
6840;SDS011;3458;53.678;14.080;2022-11-20T08:53:27;6.97;;;5.60;;
6840;SDS011;3458;53.678;14.080;2022-11-20T08:55:52;13.90;;;5.10;;
6840;SDS011;3458;53.678;14.080;2022-11-20T08:58:18;9.90;;;5.70;;
6840;SDS011;3458;53.678;14.080;2022-11-20T09:00:43;8.47;;;5.20;;
6840;SDS011;3458;53.678;14.080;2022-11-20T09:03:09;11.07;;;6.53;;
6840;SDS011;3458;53.678;14.080;2022-11-20T09:05:35;10.23;;;6.30;;
6840;SDS011;3458;53.678;14.080;2022-11-20T09:08:00;10.90;;;6.70;;
6840;SDS011;3458;53.678;14.080;2022-11-20T09:10:26;11.97;;;6.97;;
6840;SDS011;3458;53.678;14.080;2022-11-20T09:12:52;10.23;;;6.07;;
6840;SDS011;3458;53.678;14.080;2022-11-20T09:15:18;9.57;;;6.40;;
6840;SDS011;3458;53.678;14.080;2022-11-20T09:17:53;10.90;;;6.90;;
6840;SDS011;3458;53.678;14.080;2022-11-20T09:20:24;10.57;;;6.20;;
6840;SDS011;3458;53.678;14.080;2022-11-20T09:22:50;10.43;;;7.30;;
6840;SDS011;3458;53.678;14.080;2022-11-20T09:25:16;11.97;;;7.47;;
6840;SDS011;3458;53.678;14.080;2022-11-20T09:27:42;9.80;;;6.90;;
6840;SDS011;3458;53.678;14.080;2022-11-20T09:30:09;7.03;;;5.80;;
6840;SDS011;3458;53.678;14.080;2022-11-20T09:32:35;11.60;;;6.17;;
6840;SDS011;3458;53.678;14.080;2022-11-20T09:35:01;11.17;;;6.70;;
6840;SDS011;3458;53.678;14.080;2022-11-20T09:37:26;13.50;;;8.37;;
6840;SDS011;3458;53.678;14.080;2022-11-20T09:39:52;11.50;;;7.43;;
6840;SDS011;3458;53.678;14.080;2022-11-20T09:42:22;12.87;;;7.57;;
6840;SDS011;3458;53.678;14.080;2022-11-20T09:45:04;12.33;;;7.47;;
6840;SDS011;3458;53.678;14.080;2022-11-20T09:50:23;14.80;;;7.90;;
6840;SDS011;3458;53.678;14.080;2022-11-20T09:55:35;12.40;;;8.30;;
6840;SDS011;3458;53.678;14.080;2022-11-20T09:58:02;13.93;;;8.70;;
6840;SDS011;3458;53.678;14.080;2022-11-20T10:00:32;25.87;;;17.00;;
6840;SDS011;3458;53.678;14.080;2022-11-20T10:08:31;10.57;;;7.63;;
6840;SDS011;3458;53.678;14.080;2022-11-20T10:11:18;8.43;;;6.23;;
6840;SDS011;3458;53.678;14.080;2022-11-20T10:14:12;9.50;;;6.30;;
6840;SDS011;3458;53.678;14.080;2022-11-20T10:17:00;9.07;;;6.97;;
6840;SDS011;3458;53.678;14.080;2022-11-20T10:19:38;10.80;;;7.20;;
6840;SDS011;3458;53.678;14.080;2022-11-20T10:25:15;11.70;;;8.60;;
6840;SDS011;3458;53.678;14.080;2022-11-20T10:30:57;7.83;;;6.10;;
6840;SDS011;3458;53.678;14.080;2022-11-20T10:33:28;11.00;;;7.77;;
6840;SDS011;3458;53.678;14.080;2022-11-20T10:38:57;14.43;;;9.40;;
6840;SDS011;3458;53.678;14.080;2022-11-20T10:41:30;11.00;;;7.17;;
6840;SDS011;3458;53.678;14.080;2022-11-20T10:44:01;8.87;;;6.23;;
6840;SDS011;3458;53.678;14.080;2022-11-20T10:46:40;15.03;;;7.80;;
6840;SDS011;3458;53.678;14.080;2022-11-20T10:49:11;13.33;;;8.80;;
6840;SDS011;3458;53.678;14.080;2022-11-20T10:51:47;12.47;;;8.17;;
6840;SDS011;3458;53.678;14.080;2022-11-20T10:54:35;13.10;;;8.77;;
6840;SDS011;3458;53.678;14.080;2022-11-20T11:00:34;13.43;;;8.57;;
6840;SDS011;3458;53.678;14.080;2022-11-20T11:03:00;16.27;;;8.27;;
6840;SDS011;3458;53.678;14.080;2022-11-20T11:05:42;17.07;;;10.40;;
6840;SDS011;3458;53.678;14.080;2022-11-20T11:08:16;13.97;;;8.23;;
6840;SDS011;3458;53.678;14.080;2022-11-20T11:10:48;12.23;;;8.37;;
6840;SDS011;3458;53.678;14.080;2022-11-20T11:13:22;13.30;;;8.47;;
6840;SDS011;3458;53.678;14.080;2022-11-20T11:15:50;14.20;;;9.03;;
6840;SDS011;3458;53.678;14.080;2022-11-20T11:18:23;12.03;;;8.13;;
6840;SDS011;3458;53.678;14.080;2022-11-20T11:20:51;11.50;;;7.50;;
6840;SDS011;3458;53.678;14.080;2022-11-20T11:23:29;18.43;;;10.30;;
6840;SDS011;3458;53.678;14.080;2022-11-20T11:26:00;14.27;;;8.77;;
6840;SDS011;3458;53.678;14.080;2022-11-20T11:28:27;16.60;;;8.90;;
6840;SDS011;3458;53.678;14.080;2022-11-20T11:30:53;12.10;;;8.20;;
6840;SDS011;3458;53.678;14.080;2022-11-20T11:33:23;14.87;;;9.17;;
6840;SDS011;3458;53.678;14.080;2022-11-20T11:35:51;24.77;;;13.73;;
6840;SDS011;3458;53.678;14.080;2022-11-20T11:38:36;23.40;;;13.37;;
6840;SDS011;3458;53.678;14.080;2022-11-20T11:41:09;15.57;;;10.50;;
6840;SDS011;3458;53.678;14.080;2022-11-20T11:44:18;16.37;;;9.77;;
6840;SDS011;3458;53.678;14.080;2022-11-20T11:47:02;13.33;;;7.30;;
6840;SDS011;3458;53.678;14.080;2022-11-20T11:49:29;11.70;;;8.80;;
6840;SDS011;3458;53.678;14.080;2022-11-20T11:51:59;17.60;;;9.37;;
6840;SDS011;3458;53.678;14.080;2022-11-20T11:54:48;17.50;;;9.57;;
6840;SDS011;3458;53.678;14.080;2022-11-20T11:57:24;14.43;;;9.30;;
6840;SDS011;3458;53.678;14.080;2022-11-20T12:05:17;13.23;;;8.33;;
6840;SDS011;3458;53.678;14.080;2022-11-20T12:07:47;12.67;;;7.60;;
6840;SDS011;3458;53.678;14.080;2022-11-20T12:10:21;12.70;;;7.10;;
6840;SDS011;3458;53.678;14.080;2022-11-20T12:13:17;14.70;;;8.50;;
6840;SDS011;3458;53.678;14.080;2022-11-20T12:15:54;14.57;;;8.40;;
6840;SDS011;3458;53.678;14.080;2022-11-20T12:18:20;13.53;;;8.00;;
6840;SDS011;3458;53.678;14.080;2022-11-20T12:20:51;11.33;;;7.90;;
6840;SDS011;3458;53.678;14.080;2022-11-20T12:24:04;12.70;;;8.10;;
6840;SDS011;3458;53.678;14.080;2022-11-20T12:26:50;16.23;;;8.80;;
6840;SDS011;3458;53.678;14.080;2022-11-20T12:29:32;11.67;;;7.30;;
6840;SDS011;3458;53.678;14.080;2022-11-20T12:35:14;13.30;;;8.13;;
6840;SDS011;3458;53.678;14.080;2022-11-20T12:40:53;13.50;;;8.60;;
6840;SDS011;3458;53.678;14.080;2022-11-20T12:43:28;14.10;;;8.30;;
6840;SDS011;3458;53.678;14.080;2022-11-20T12:46:18;15.53;;;8.37;;
6840;SDS011;3458;53.678;14.080;2022-11-20T12:49:12;15.30;;;8.77;;
6840;SDS011;3458;53.678;14.080;2022-11-20T12:52:03;14.67;;;8.50;;
6840;SDS011;3458;53.678;14.080;2022-11-20T12:54:46;13.20;;;8.40;;
6840;SDS011;3458;53.678;14.080;2022-11-20T13:00:26;13.30;;;8.70;;
6840;SDS011;3458;53.678;14.080;2022-11-20T13:02:58;14.07;;;8.70;;
6840;SDS011;3458;53.678;14.080;2022-11-20T13:08:21;13.67;;;8.70;;
6840;SDS011;3458;53.678;14.080;2022-11-20T13:11:07;15.90;;;8.87;;
6840;SDS011;3458;53.678;14.080;2022-11-20T13:13:58;12.77;;;8.23;;
6840;SDS011;3458;53.678;14.080;2022-11-20T13:16:40;13.60;;;9.07;;
6840;SDS011;3458;53.678;14.080;2022-11-20T13:19:11;14.23;;;8.73;;
6840;SDS011;3458;53.678;14.080;2022-11-20T13:21:40;14.20;;;9.90;;
6840;SDS011;3458;53.678;14.080;2022-11-20T13:24:20;12.83;;;8.93;;
6840;SDS011;3458;53.678;14.080;2022-11-20T13:29:40;14.97;;;9.33;;
6840;SDS011;3458;53.678;14.080;2022-11-20T13:32:16;17.00;;;10.30;;
6840;SDS011;3458;53.678;14.080;2022-11-20T13:34:57;14.17;;;9.40;;
6840;SDS011;3458;53.678;14.080;2022-11-20T13:37:29;13.30;;;8.00;;
6840;SDS011;3458;53.678;14.080;2022-11-20T13:42:36;10.30;;;7.30;;
6840;SDS011;3458;53.678;14.080;2022-11-20T13:45:23;10.10;;;6.90;;
6840;SDS011;3458;53.678;14.080;2022-11-20T13:47:50;9.70;;;6.50;;
6840;SDS011;3458;53.678;14.080;2022-11-20T13:50:17;7.60;;;5.70;;
6840;SDS011;3458;53.678;14.080;2022-11-20T13:52:57;12.70;;;5.87;;
6840;SDS011;3458;53.678;14.080;2022-11-20T13:55:36;11.03;;;6.30;;
6840;SDS011;3458;53.678;14.080;2022-11-20T14:01:35;9.60;;;6.07;;
6840;SDS011;3458;53.678;14.080;2022-11-20T14:03:44;8.37;;;5.63;;
6840;SDS011;3458;53.678;14.080;2022-11-20T14:06:12;32.53;;;15.60;;
6840;SDS011;3458;53.678;14.080;2022-11-20T14:08:47;11.90;;;6.83;;
6840;SDS011;3458;53.678;14.080;2022-11-20T14:11:20;11.87;;;6.43;;
6840;SDS011;3458;53.678;14.080;2022-11-20T14:16:40;9.97;;;6.10;;
6840;SDS011;3458;53.678;14.080;2022-11-20T14:21:49;11.47;;;6.83;;
6840;SDS011;3458;53.678;14.080;2022-11-20T14:24:21;9.10;;;5.70;;
6840;SDS011;3458;53.678;14.080;2022-11-20T14:26:48;9.23;;;5.60;;
6840;SDS011;3458;53.678;14.080;2022-11-20T14:29:16;12.90;;;6.00;;
6840;SDS011;3458;53.678;14.080;2022-11-20T14:31:44;8.60;;;5.80;;
6840;SDS011;3458;53.678;14.080;2022-11-20T14:34:15;9.07;;;6.33;;
6840;SDS011;3458;53.678;14.080;2022-11-20T14:36:44;11.10;;;7.70;;
6840;SDS011;3458;53.678;14.080;2022-11-20T14:39:11;9.57;;;6.10;;
6840;SDS011;3458;53.678;14.080;2022-11-20T14:41:49;15.93;;;6.23;;
6840;SDS011;3458;53.678;14.080;2022-11-20T14:44:23;8.60;;;5.90;;
6840;SDS011;3458;53.678;14.080;2022-11-20T14:46:59;8.37;;;5.90;;
6840;SDS011;3458;53.678;14.080;2022-11-20T14:49:26;7.37;;;4.90;;
6840;SDS011;3458;53.678;14.080;2022-11-20T14:51:59;9.57;;;5.30;;
6840;SDS011;3458;53.678;14.080;2022-11-20T14:54:26;8.57;;;5.87;;
6840;SDS011;3458;53.678;14.080;2022-11-20T14:56:54;8.90;;;5.20;;
6840;SDS011;3458;53.678;14.080;2022-11-20T14:59:31;9.07;;;5.80;;
6840;SDS011;3458;53.678;14.080;2022-11-20T15:02:08;8.67;;;5.67;;
6840;SDS011;3458;53.678;14.080;2022-11-20T15:04:56;10.33;;;6.53;;
6840;SDS011;3458;53.678;14.080;2022-11-20T15:07:31;9.40;;;6.30;;
6840;SDS011;3458;53.678;14.080;2022-11-20T15:10:03;9.37;;;5.60;;
6840;SDS011;3458;53.678;14.080;2022-11-20T15:12:29;10.90;;;6.10;;
6840;SDS011;3458;53.678;14.080;2022-11-20T15:14:56;10.80;;;7.10;;
6840;SDS011;3458;53.678;14.080;2022-11-20T15:17:22;11.90;;;6.90;;
6840;SDS011;3458;53.678;14.080;2022-11-20T15:19:48;11.23;;;6.80;;
6840;SDS011;3458;53.678;14.080;2022-11-20T15:22:13;10.87;;;6.83;;
6840;SDS011;3458;53.678;14.080;2022-11-20T15:24:41;9.27;;;6.33;;
6840;SDS011;3458;53.678;14.080;2022-11-20T15:27:07;9.80;;;6.30;;
6840;SDS011;3458;53.678;14.080;2022-11-20T15:29:34;8.10;;;5.23;;
6840;SDS011;3458;53.678;14.080;2022-11-20T15:31:59;9.33;;;6.30;;
6840;SDS011;3458;53.678;14.080;2022-11-20T15:34:26;10.37;;;6.70;;
6840;SDS011;3458;53.678;14.080;2022-11-20T15:36:52;12.33;;;6.40;;
6840;SDS011;3458;53.678;14.080;2022-11-20T15:39:18;18.47;;;7.50;;
6840;SDS011;3458;53.678;14.080;2022-11-20T15:41:43;10.50;;;6.70;;
6840;SDS011;3458;53.678;14.080;2022-11-20T15:44:09;10.20;;;6.20;;
6840;SDS011;3458;53.678;14.080;2022-11-20T15:46:39;9.90;;;6.77;;
6840;SDS011;3458;53.678;14.080;2022-11-20T15:49:11;9.30;;;6.87;;
6840;SDS011;3458;53.678;14.080;2022-11-20T15:51:39;15.73;;;6.10;;
6840;SDS011;3458;53.678;14.080;2022-11-20T15:54:13;11.03;;;6.33;;
6840;SDS011;3458;53.678;14.080;2022-11-20T15:56:42;10.00;;;5.90;;
6840;SDS011;3458;53.678;14.080;2022-11-20T15:59:08;9.87;;;6.53;;
6840;SDS011;3458;53.678;14.080;2022-11-20T16:01:33;10.90;;;5.80;;
6840;SDS011;3458;53.678;14.080;2022-11-20T16:03:59;9.57;;;6.20;;